1881 NOT_NAMED (1881042S12085)


IBTrACS version v04r00. Visit IBTrACS website for data access.
Please direct all questions to the IBTrACS Q and A forum

Storm track - Intensity - Wind Radii - Intensity Data - Source Data - All data

Summary Information

Storm ID 1881042S12085
Start Feb 11 06Z
End Feb 22 06Z
ATCF IDs
Track status Best track data.

Storm track plot

Map of storm track

Intensity plots

No Intensity information for this storm


Radial wind information

No radial wind information for this storm


Position and Intensity Table

BASIN ISO_TIME_________ NATURE LAT LON
degrees north degrees east
SI 1881-02-11 06:00:00 NR -11.80 84.60
SI 09:00:00 NR -11.99 84.19
SI 12:00:00 NR -12.18 83.79
SI 15:00:00 NR -12.36 83.39
SI 18:00:00 NR -12.54 82.99
SI 21:00:00 NR -12.72 82.61
SI 1881-02-12 00:00:00 NR -12.89 82.23
SI 03:00:00 NR -13.05 81.86
SI 06:00:00 NR -13.20 81.50
SI 09:00:00 NR -13.34 81.16
SI 12:00:00 NR -13.48 80.83
SI 15:00:00 NR -13.61 80.51
SI 18:00:00 NR -13.73 80.20
SI 21:00:00 NR -13.85 79.89
SI 1881-02-13 00:00:00 NR -13.97 79.59
SI 03:00:00 NR -14.08 79.30
SI 06:00:00 NR -14.20 79.00
SI 09:00:00 NR -14.32 78.70
SI 12:00:00 NR -14.45 78.40
SI 15:00:00 NR -14.57 78.11
SI 18:00:00 NR -14.70 77.81
SI 21:00:00 NR -14.82 77.52
SI 1881-02-14 00:00:00 NR -14.95 77.22
SI 03:00:00 NR -15.07 76.91
SI 06:00:00 NR -15.20 76.60
SI 09:00:00 NR -15.32 76.27
SI 12:00:00 NR -15.45 75.93
SI 15:00:00 NR -15.57 75.59
SI 18:00:00 NR -15.69 75.25
SI 21:00:00 NR -15.82 74.91
SI 1881-02-15 00:00:00 NR -15.94 74.57
SI 03:00:00 NR -16.07 74.23
SI 06:00:00 NR -16.20 73.90
SI 09:00:00 NR -16.32 73.62
SI 12:00:00 NR -16.44 73.34
SI 15:00:00 NR -16.56 73.07
SI 18:00:00 NR -16.69 72.79
SI 21:00:00 NR -16.82 72.51
SI 1881-02-16 00:00:00 NR -16.97 72.20
SI 03:00:00 NR -17.13 71.87
SI 06:00:00 NR -17.30 71.50
SI 09:00:00 NR -17.50 71.06
SI 12:00:00 NR -17.72 70.58
SI 15:00:00 NR -17.95 70.08
SI 18:00:00 NR -18.18 69.56
SI 21:00:00 NR -18.42 69.03
SI 1881-02-17 00:00:00 NR -18.65 68.50
SI 03:00:00 NR -18.88 67.99
SI 06:00:00 NR -19.10 67.50
SI 09:00:00 NR -19.28 67.08
SI 12:00:00 NR -19.45 66.69
SI 15:00:00 NR -19.62 66.31
SI 18:00:00 NR -19.78 65.94
SI 21:00:00 NR -19.95 65.57
SI 1881-02-18 00:00:00 NR -20.12 65.19
SI 03:00:00 NR -20.30 64.81
SI 06:00:00 NR -20.50 64.40
SI 09:00:00 NR -20.73 63.94
SI 12:00:00 NR -20.97 63.46
SI 15:00:00 NR -21.23 62.96
SI 18:00:00 NR -21.49 62.46
SI 21:00:00 NR -21.75 61.96
SI 1881-02-19 00:00:00 NR -22.01 61.46
SI 03:00:00 NR -22.26 60.97
SI 06:00:00 NR -22.50 60.50
SI 09:00:00 NR -22.71 60.06
SI 12:00:00 NR -22.92 59.64
SI 15:00:00 NR -23.12 59.23
SI 18:00:00 NR -23.31 58.83
SI 21:00:00 NR -23.51 58.44
SI 1881-02-20 00:00:00 NR -23.70 58.05
SI 03:00:00 NR -23.90 57.68
SI 06:00:00 NR -24.10 57.30
SI 09:00:00 NR -24.33 56.89
SI 12:00:00 NR -24.57 56.47
SI 15:00:00 NR -24.81 56.06
SI 18:00:00 NR -25.05 55.67
SI 21:00:00 NR -25.29 55.29
SI 1881-02-21 00:00:00 NR -25.51 54.93
SI 03:00:00 NR -25.71 54.60
SI 06:00:00 NR -25.90 54.30
SI 09:00:00 NR -26.06 54.04
SI 12:00:00 NR -26.21 53.81
SI 15:00:00 NR -26.33 53.62
SI 18:00:00 NR -26.44 53.44
SI 21:00:00 NR -26.54 53.29
SI 1881-02-22 00:00:00 NR -26.63 53.15
SI 03:00:00 NR -26.72 53.02
SI 06:00:00 NR -26.80 52.90

Source Information

Agency Information
USA
TOKYO
CMA
HKO
NEWDELHI
REUNION WMO-Best-Tracks.txt:Line=1245:xxxx881182
BOM
NADI
WELLINGTON
DS824
TD9636
TD9635
NEUMANN
MLC

All available IBTrACS Data

SEASON BASIN SUBBASIN ISO_TIME_________ NATURE LAT LON WMO AGENCY DIST2LAND LANDFALL IFLAG USA SSHS REUNION LAT REUNION LON REUNION TYPE REUNION TNUM STORM SPEED STORM DIR
Year degrees north degrees east km km 1 degrees north degrees east 1 kts degrees
1881 SI MM 1881-02-11 06:00:00 NR -11.80 84.60 1942 1942 _____O________ -1 -11.80 84.60 99 9.90 9 244
1881 SI MM 09:00:00 NR -11.99 84.19 1990 1990 _____P________ -1 -11.99 84.19 99 9 245
1881 SI MM 12:00:00 NR -12.18 83.79 2039 2039 _____P________ -1 -12.18 83.79 99 9 245
1881 SI MM 15:00:00 NR -12.36 83.39 2073 2070 _____P________ -1 -12.36 83.39 99 9 245
1881 SI MM 18:00:00 NR -12.54 82.99 2078 2078 _____P________ -1 -12.54 82.99 99 8 245
1881 SI MM 21:00:00 NR -12.72 82.61 2095 2094 _____P________ -1 -12.72 82.61 99 8 245
1881 SI MM 1881-02-12 00:00:00 NR -12.89 82.23 2113 2112 _____P________ -1 -12.89 82.23 99 8 246
1881 SI MM 03:00:00 NR -13.05 81.86 2122 2122 _____P________ -1 -13.05 81.86 99 8 246
1881 SI MM 06:00:00 NR -13.20 81.50 2142 2141 _____O________ -1 -13.20 81.50 99 9.90 7 247
1881 SI MM 09:00:00 NR -13.34 81.16 2152 2152 _____P________ -1 -13.34 81.16 99 7 247
1881 SI MM 12:00:00 NR -13.48 80.83 2173 2173 _____P________ -1 -13.48 80.83 99 7 247
1881 SI MM 15:00:00 NR -13.61 80.51 2184 2184 _____P________ -1 -13.61 80.51 99 7 248
1881 SI MM 18:00:00 NR -13.73 80.20 2196 2196 _____P________ -1 -13.73 80.20 99 6 248
1881 SI MM 21:00:00 NR -13.85 79.89 2208 2208 _____P________ -1 -13.85 79.89 99 6 248
1881 SI MM 1881-02-13 00:00:00 NR -13.97 79.59 2232 2232 _____P________ -1 -13.97 79.59 99 6 248
1881 SI MM 03:00:00 NR -14.08 79.30 2245 2245 _____P________ -1 -14.08 79.30 99 6 248
1881 SI MM 06:00:00 NR -14.20 79.00 reunion 2258 2258 _____O________ -1 -14.20 79.00 99 9.90 6 247
1881 SI MM 09:00:00 NR -14.32 78.70 2272 2272 _____P________ -1 -14.32 78.70 99 6 247
1881 SI MM 12:00:00 NR -14.45 78.40 2282 2244 _____P________ -1 -14.45 78.40 99 6 246
1881 SI MM 15:00:00 NR -14.57 78.11 2244 2209 _____P________ -1 -14.57 78.11 99 6 246
1881 SI MM 18:00:00 NR -14.70 77.81 2209 2175 _____P________ -1 -14.70 77.81 99 6 246
1881 SI MM 21:00:00 NR -14.82 77.52 2175 2141 _____P________ -1 -14.82 77.52 99 6 247
1881 SI MM 1881-02-14 00:00:00 NR -14.95 77.22 2141 2103 _____P________ -1 -14.95 77.22 99 6 247
1881 SI MM 03:00:00 NR -15.07 76.91 2103 2069 _____P________ -1 -15.07 76.91 99 6 247
1881 SI MM 06:00:00 NR -15.20 76.60 reunion 2069 2035 _____O________ -1 -15.20 76.60 99 9.90 7 248
1881 SI MM 09:00:00 NR -15.32 76.27 2035 2001 _____P________ -1 -15.32 76.27 99 7 249
1881 SI MM 12:00:00 NR -15.45 75.93 1991 1953 _____P________ -1 -15.45 75.93 99 7 249
1881 SI MM 15:00:00 NR -15.57 75.59 1953 1919 _____P________ -1 -15.57 75.59 99 7 250
1881 SI MM 18:00:00 NR -15.69 75.25 1909 1875 _____P________ -1 -15.69 75.25 99 7 249
1881 SI MM 21:00:00 NR -15.82 74.91 1875 1841 _____P________ -1 -15.82 74.91 99 7 249
1881 SI MM 1881-02-15 00:00:00 NR -15.94 74.57 1841 1794 _____P________ -1 -15.94 74.57 99 7 249
1881 SI MM 03:00:00 NR -16.07 74.23 1794 1760 _____P________ -1 -16.07 74.23 99 7 248
1881 SI MM 06:00:00 NR -16.20 73.90 reunion 1760 1726 _____O________ -1 -16.20 73.90 99 9.90 6 247
1881 SI MM 09:00:00 NR -16.32 73.62 1726 1702 _____P________ -1 -16.32 73.62 99 6 246
1881 SI MM 12:00:00 NR -16.44 73.34 1692 1665 _____P________ -1 -16.44 73.34 99 6 245
1881 SI MM 15:00:00 NR -16.56 73.07 1665 1631 _____P________ -1 -16.56 73.07 99 6 245
1881 SI MM 18:00:00 NR -16.69 72.79 1631 1597 _____P________ -1 -16.69 72.79 99 6 244
1881 SI MM 21:00:00 NR -16.82 72.51 1597 1560 _____P________ -1 -16.82 72.51 99 6 244
1881 SI MM 1881-02-16 00:00:00 NR -16.97 72.20 1560 1527 _____P________ -1 -16.97 72.20 99 7 244
1881 SI MM 03:00:00 NR -17.13 71.87 1527 1480 _____P________ -1 -17.13 71.87 99 7 244
1881 SI MM 06:00:00 NR -17.30 71.50 reunion 1480 1433 _____O________ -1 -17.30 71.50 99 9.90 9 244
1881 SI MM 09:00:00 NR -17.50 71.06 1433 1376 _____P________ -1 -17.50 71.06 99 10 245
1881 SI MM 12:00:00 NR -17.72 70.58 1376 1319 _____P________ -1 -17.72 70.58 99 10 245
1881 SI MM 15:00:00 NR -17.95 70.08 1319 1260 _____P________ -1 -17.95 70.08 99 11 245
1881 SI MM 18:00:00 NR -18.18 69.56 1260 1204 _____P________ -1 -18.18 69.56 99 11 245
1881 SI MM 21:00:00 NR -18.42 69.03 1193 1137 _____P________ -1 -18.42 69.03 99 11 245
1881 SI MM 1881-02-17 00:00:00 NR -18.65 68.50 1135 1079 _____P________ -1 -18.65 68.50 99 11 245
1881 SI MM 03:00:00 NR -18.88 67.99 1079 1024 _____P________ -1 -18.88 67.99 99 11 245
1881 SI MM 06:00:00 NR -19.10 67.50 reunion 1024 979 _____O________ -1 -19.10 67.50 99 9.90 9 245
1881 SI MM 09:00:00 NR -19.28 67.08 979 936 _____P________ -1 -19.28 67.08 99 8 245
1881 SI MM 12:00:00 NR -19.45 66.69 934 891 _____P________ -1 -19.45 66.69 99 8 245
1881 SI MM 15:00:00 NR -19.62 66.31 891 858 _____P________ -1 -19.62 66.31 99 8 245
1881 SI MM 18:00:00 NR -19.78 65.94 847 815 _____P________ -1 -19.78 65.94 99 8 245
1881 SI MM 21:00:00 NR -19.95 65.57 815 772 _____P________ -1 -19.95 65.57 99 8 244
1881 SI MM 1881-02-18 00:00:00 NR -20.12 65.19 772 729 _____P________ -1 -20.12 65.19 99 8 244
1881 SI MM 03:00:00 NR -20.30 64.81 729 688 _____P________ -1 -20.30 64.81 99 8 243
1881 SI MM 06:00:00 NR -20.50 64.40 reunion 688 647 _____O________ -1 -20.50 64.40 99 9.90 9 242
1881 SI MM 09:00:00 NR -20.73 63.94 636 596 _____P________ -1 -20.73 63.94 99 10 242
1881 SI MM 12:00:00 NR -20.97 63.46 598 549 _____P________ -1 -20.97 63.46 99 10 241
1881 SI MM 15:00:00 NR -21.23 62.96 549 503 _____P________ -1 -21.23 62.96 99 11 241
1881 SI MM 18:00:00 NR -21.49 62.46 506 463 _____P________ -1 -21.49 62.46 99 11 241
1881 SI MM 21:00:00 NR -21.75 61.96 463 427 _____P________ -1 -21.75 61.96 99 11 241
1881 SI MM 1881-02-19 00:00:00 NR -22.01 61.46 427 390 _____P________ -1 -22.01 61.46 99 10 241
1881 SI MM 03:00:00 NR -22.26 60.97 396 365 _____P________ -1 -22.26 60.97 99 10 241
1881 SI MM 06:00:00 NR -22.50 60.50 reunion 365 349 _____O________ -1 -22.50 60.50 99 9.90 10 242
1881 SI MM 09:00:00 NR -22.71 60.06 349 336 _____P________ -1 -22.71 60.06 99 9 242
1881 SI MM 12:00:00 NR -22.92 59.64 332 330 _____P________ -1 -22.92 59.64 99 9 242
1881 SI MM 15:00:00 NR -23.12 59.23 329 329 _____P________ -1 -23.12 59.23 99 8 242
1881 SI MM 18:00:00 NR -23.31 58.83 332 332 _____P________ -1 -23.31 58.83 99 8 242
1881 SI MM 21:00:00 NR -23.51 58.44 343 343 _____P________ -1 -23.51 58.44 99 8 241
1881 SI MM 1881-02-20 00:00:00 NR -23.70 58.05 357 346 _____P________ -1 -23.70 58.05 99 8 241
1881 SI MM 03:00:00 NR -23.90 57.68 349 343 _____P________ -1 -23.90 57.68 99 8 240
1881 SI MM 06:00:00 NR -24.10 57.30 reunion 348 343 _____O________ -1 -24.10 57.30 99 9.90 8 239
1881 SI MM 09:00:00 NR -24.33 56.89 350 350 _____P________ -1 -24.33 56.89 99 9 238
1881 SI MM 12:00:00 NR -24.57 56.47 369 366 _____P________ -1 -24.57 56.47 99 9 237
1881 SI MM 15:00:00 NR -24.81 56.06 383 382 _____P________ -1 -24.81 56.06 99 9 237
1881 SI MM 18:00:00 NR -25.05 55.67 413 413 _____P________ -1 -25.05 55.67 99 8 236
1881 SI MM 21:00:00 NR -25.29 55.29 436 436 _____P________ -1 -25.29 55.29 99 8 236
1881 SI MM 1881-02-21 00:00:00 NR -25.51 54.93 463 463 _____P________ -1 -25.51 54.93 99 8 235
1881 SI MM 03:00:00 NR -25.71 54.60 491 491 _____P________ -1 -25.71 54.60 99 7 235
1881 SI MM 06:00:00 NR -25.90 54.30 reunion 520 520 _____O________ -1 -25.90 54.30 99 9.90 6 235
1881 SI MM 09:00:00 NR -26.06 54.04 549 549 _____P________ -1 -26.06 54.04 99 5 235
1881 SI MM 12:00:00 NR -26.21 53.81 566 566 _____P________ -1 -26.21 53.81 99 5 235
1881 SI MM 15:00:00 NR -26.33 53.62 584 584 _____P________ -1 -26.33 53.62 99 4 234
1881 SI MM 18:00:00 NR -26.44 53.44 601 601 _____P________ -1 -26.44 53.44 99 4 234
1881 SI MM 21:00:00 NR -26.54 53.29 615 615 _____P________ -1 -26.54 53.29 99 3 234
1881 SI MM 1881-02-22 00:00:00 NR -26.63 53.15 629 619 _____P________ -1 -26.63 53.15 99 3 234
1881 SI MM 03:00:00 NR -26.72 53.02 619 613 _____P________ -1 -26.72 53.02 99 3 234
1881 SI MM 06:00:00 NR -26.80 52.90 reunion 613 _____O________ -1 -26.80 52.90 99 9.90 3 233